sensor_id;sensor_type;location;lat;lon;timestamp;temperature;humidity
4308;DHT22;2167;53.448;9.984;2023-04-29T00:01:25;10.80;33.30
4308;DHT22;2167;53.448;9.984;2023-04-29T00:03:51;10.70;33.50
4308;DHT22;2167;53.448;9.984;2023-04-29T00:06:16;10.70;33.80
4308;DHT22;2167;53.448;9.984;2023-04-29T00:08:42;10.70;33.80
4308;DHT22;2167;53.448;9.984;2023-04-29T00:11:08;10.70;34.10
4308;DHT22;2167;53.448;9.984;2023-04-29T00:13:35;10.60;34.10
4308;DHT22;2167;53.448;9.984;2023-04-29T00:16:01;10.70;34.70
4308;DHT22;2167;53.448;9.984;2023-04-29T00:18:27;10.70;34.30
4308;DHT22;2167;53.448;9.984;2023-04-29T00:20:52;10.60;33.30
4308;DHT22;2167;53.448;9.984;2023-04-29T00:23:18;10.50;34.10
4308;DHT22;2167;53.448;9.984;2023-04-29T00:25:44;10.50;34.30
4308;DHT22;2167;53.448;9.984;2023-04-29T00:28:09;10.50;34.50
4308;DHT22;2167;53.448;9.984;2023-04-29T00:30:35;10.50;34.20
4308;DHT22;2167;53.448;9.984;2023-04-29T00:33:01;10.50;34.40
4308;DHT22;2167;53.448;9.984;2023-04-29T00:35:27;10.50;34.80
4308;DHT22;2167;53.448;9.984;2023-04-29T00:37:52;10.50;34.80
4308;DHT22;2167;53.448;9.984;2023-04-29T00:40:18;10.60;34.90
4308;DHT22;2167;53.448;9.984;2023-04-29T00:42:44;10.50;34.70
4308;DHT22;2167;53.448;9.984;2023-04-29T00:45:10;10.50;34.90
4308;DHT22;2167;53.448;9.984;2023-04-29T00:47:37;10.60;35.00
4308;DHT22;2167;53.448;9.984;2023-04-29T00:50:04;10.60;35.40
4308;DHT22;2167;53.448;9.984;2023-04-29T00:52:30;10.50;34.90
4308;DHT22;2167;53.448;9.984;2023-04-29T00:54:57;10.60;34.60
4308;DHT22;2167;53.448;9.984;2023-04-29T00:57:22;10.60;34.10
4308;DHT22;2167;53.448;9.984;2023-04-29T00:59:48;10.50;34.30
4308;DHT22;2167;53.448;9.984;2023-04-29T01:02:15;10.50;34.70
4308;DHT22;2167;53.448;9.984;2023-04-29T01:04:42;10.50;34.80
4308;DHT22;2167;53.448;9.984;2023-04-29T01:20:20;10.40;35.40
4308;DHT22;2167;53.448;9.984;2023-04-29T01:22:47;10.40;35.20
4308;DHT22;2167;53.448;9.984;2023-04-29T01:25:13;10.40;35.30
4308;DHT22;2167;53.448;9.984;2023-04-29T01:33:05;10.30;36.00
4308;DHT22;2167;53.448;9.984;2023-04-29T01:38:40;10.30;35.60
4308;DHT22;2167;53.448;9.984;2023-04-29T01:41:21;10.30;36.00
4308;DHT22;2167;53.448;9.984;2023-04-29T01:43:50;10.30;35.90
4308;DHT22;2167;53.448;9.984;2023-04-29T01:46:17;10.30;36.20
4308;DHT22;2167;53.448;9.984;2023-04-29T01:48:46;10.20;36.30
4308;DHT22;2167;53.448;9.984;2023-04-29T01:51:12;10.30;36.50
4308;DHT22;2167;53.448;9.984;2023-04-29T01:53:37;10.30;36.00
4308;DHT22;2167;53.448;9.984;2023-04-29T01:56:07;10.30;35.90
4308;DHT22;2167;53.448;9.984;2023-04-29T01:58:32;10.30;35.70
4308;DHT22;2167;53.448;9.984;2023-04-29T02:00:58;10.30;35.50
4308;DHT22;2167;53.448;9.984;2023-04-29T02:03:23;10.30;35.80
4308;DHT22;2167;53.448;9.984;2023-04-29T02:05:49;10.30;36.70
4308;DHT22;2167;53.448;9.984;2023-04-29T02:08:16;10.30;35.90
4308;DHT22;2167;53.448;9.984;2023-04-29T02:10:50;10.20;35.80
4308;DHT22;2167;53.448;9.984;2023-04-29T02:13:15;10.30;36.20
4308;DHT22;2167;53.448;9.984;2023-04-29T02:15:41;10.20;36.10
4308;DHT22;2167;53.448;9.984;2023-04-29T02:18:06;10.30;36.00
4308;DHT22;2167;53.448;9.984;2023-04-29T02:20:32;10.20;36.00
4308;DHT22;2167;53.448;9.984;2023-04-29T02:22:57;10.30;36.40
4308;DHT22;2167;53.448;9.984;2023-04-29T02:25:23;10.30;36.20
4308;DHT22;2167;53.448;9.984;2023-04-29T02:27:49;10.30;35.00
4308;DHT22;2167;53.448;9.984;2023-04-29T02:30:14;10.30;35.00
4308;DHT22;2167;53.448;9.984;2023-04-29T02:32:40;10.30;35.20
4308;DHT22;2167;53.448;9.984;2023-04-29T02:35:06;10.20;35.20
4308;DHT22;2167;53.448;9.984;2023-04-29T02:37:32;10.20;35.40
4308;DHT22;2167;53.448;9.984;2023-04-29T02:39:58;10.20;35.10
4308;DHT22;2167;53.448;9.984;2023-04-29T02:42:24;10.30;35.00
4308;DHT22;2167;53.448;9.984;2023-04-29T02:44:49;10.20;35.10
4308;DHT22;2167;53.448;9.984;2023-04-29T02:47:15;10.20;35.10
4308;DHT22;2167;53.448;9.984;2023-04-29T02:49:40;10.20;35.20
4308;DHT22;2167;53.448;9.984;2023-04-29T02:52:06;10.20;34.90
4308;DHT22;2167;53.448;9.984;2023-04-29T02:54:31;10.20;35.00
4308;DHT22;2167;53.448;9.984;2023-04-29T02:56:57;10.20;35.40
4308;DHT22;2167;53.448;9.984;2023-04-29T02:59:23;10.10;35.40
4308;DHT22;2167;53.448;9.984;2023-04-29T03:01:48;10.10;35.70
4308;DHT22;2167;53.448;9.984;2023-04-29T03:04:14;10.20;35.50
4308;DHT22;2167;53.448;9.984;2023-04-29T03:06:40;10.20;35.60
4308;DHT22;2167;53.448;9.984;2023-04-29T03:09:06;10.20;35.70
4308;DHT22;2167;53.448;9.984;2023-04-29T03:11:31;10.20;35.40
4308;DHT22;2167;53.448;9.984;2023-04-29T03:13:57;10.10;35.30
4308;DHT22;2167;53.448;9.984;2023-04-29T03:16:23;10.10;35.00
4308;DHT22;2167;53.448;9.984;2023-04-29T03:18:48;10.10;35.20
4308;DHT22;2167;53.448;9.984;2023-04-29T03:21:14;10.10;34.90
4308;DHT22;2167;53.448;9.984;2023-04-29T03:23:41;10.10;35.00
4308;DHT22;2167;53.448;9.984;2023-04-29T03:26:07;10.10;35.00
4308;DHT22;2167;53.448;9.984;2023-04-29T03:28:33;10.10;35.20
4308;DHT22;2167;53.448;9.984;2023-04-29T03:30:58;10.10;35.50
4308;DHT22;2167;53.448;9.984;2023-04-29T03:33:24;10.10;35.30
4308;DHT22;2167;53.448;9.984;2023-04-29T03:35:50;10.10;35.00
4308;DHT22;2167;53.448;9.984;2023-04-29T03:38:16;10.10;35.00
4308;DHT22;2167;53.448;9.984;2023-04-29T03:40:42;10.10;35.40
4308;DHT22;2167;53.448;9.984;2023-04-29T03:43:07;10.00;34.90
4308;DHT22;2167;53.448;9.984;2023-04-29T03:45:34;10.00;35.00
4308;DHT22;2167;53.448;9.984;2023-04-29T03:47:59;10.00;34.80
4308;DHT22;2167;53.448;9.984;2023-04-29T03:50:25;9.90;35.00
4308;DHT22;2167;53.448;9.984;2023-04-29T03:52:51;9.90;35.20
4308;DHT22;2167;53.448;9.984;2023-04-29T03:55:16;9.90;35.20
4308;DHT22;2167;53.448;9.984;2023-04-29T03:57:42;9.80;35.90
4308;DHT22;2167;53.448;9.984;2023-04-29T04:00:08;9.80;35.50
4308;DHT22;2167;53.448;9.984;2023-04-29T04:02:34;9.80;35.90
4308;DHT22;2167;53.448;9.984;2023-04-29T04:05:00;9.80;36.20
4308;DHT22;2167;53.448;9.984;2023-04-29T04:07:26;9.80;36.30
4308;DHT22;2167;53.448;9.984;2023-04-29T04:09:51;9.90;36.50
4308;DHT22;2167;53.448;9.984;2023-04-29T04:12:17;9.90;36.40
4308;DHT22;2167;53.448;9.984;2023-04-29T04:14:43;9.90;36.30
4308;DHT22;2167;53.448;9.984;2023-04-29T04:17:08;9.80;36.10
4308;DHT22;2167;53.448;9.984;2023-04-29T04:19:34;9.90;36.50
4308;DHT22;2167;53.448;9.984;2023-04-29T04:22:02;9.90;36.40
4308;DHT22;2167;53.448;9.984;2023-04-29T04:24:28;9.90;36.40
4308;DHT22;2167;53.448;9.984;2023-04-29T04:26:53;10.00;36.40
4308;DHT22;2167;53.448;9.984;2023-04-29T04:29:19;10.00;36.10
4308;DHT22;2167;53.448;9.984;2023-04-29T04:31:44;10.00;35.90
4308;DHT22;2167;53.448;9.984;2023-04-29T04:34:10;10.10;35.90
4308;DHT22;2167;53.448;9.984;2023-04-29T04:36:36;10.00;35.30
4308;DHT22;2167;53.448;9.984;2023-04-29T04:39:02;10.00;35.10
4308;DHT22;2167;53.448;9.984;2023-04-29T04:41:27;10.00;34.90
4308;DHT22;2167;53.448;9.984;2023-04-29T04:43:55;9.90;34.90
4308;DHT22;2167;53.448;9.984;2023-04-29T04:46:21;9.90;34.80
4308;DHT22;2167;53.448;9.984;2023-04-29T04:48:47;9.90;34.90
4308;DHT22;2167;53.448;9.984;2023-04-29T04:51:13;9.90;35.00
4308;DHT22;2167;53.448;9.984;2023-04-29T04:53:39;9.90;34.60
4308;DHT22;2167;53.448;9.984;2023-04-29T04:56:05;9.90;34.40
4308;DHT22;2167;53.448;9.984;2023-04-29T04:58:32;9.80;34.60
4308;DHT22;2167;53.448;9.984;2023-04-29T05:00:58;9.90;34.80
4308;DHT22;2167;53.448;9.984;2023-04-29T05:03:24;9.90;35.10
4308;DHT22;2167;53.448;9.984;2023-04-29T05:05:57;9.90;35.20
4308;DHT22;2167;53.448;9.984;2023-04-29T05:08:26;9.90;35.40
4308;DHT22;2167;53.448;9.984;2023-04-29T05:10:53;9.90;35.30
4308;DHT22;2167;53.448;9.984;2023-04-29T05:13:19;9.80;35.10
4308;DHT22;2167;53.448;9.984;2023-04-29T05:15:48;9.90;35.30
4308;DHT22;2167;53.448;9.984;2023-04-29T05:18:13;9.90;35.70
4308;DHT22;2167;53.448;9.984;2023-04-29T05:20:39;9.90;35.40
4308;DHT22;2167;53.448;9.984;2023-04-29T05:23:04;9.90;35.30
4308;DHT22;2167;53.448;9.984;2023-04-29T05:25:30;9.90;35.10
4308;DHT22;2167;53.448;9.984;2023-04-29T05:27:56;9.90;35.60
4308;DHT22;2167;53.448;9.984;2023-04-29T05:30:21;9.90;35.40
4308;DHT22;2167;53.448;9.984;2023-04-29T05:32:47;9.80;35.20
4308;DHT22;2167;53.448;9.984;2023-04-29T05:35:16;9.90;35.40
4308;DHT22;2167;53.448;9.984;2023-04-29T05:37:42;9.90;35.60
4308;DHT22;2167;53.448;9.984;2023-04-29T05:40:08;9.90;35.80
4308;DHT22;2167;53.448;9.984;2023-04-29T05:42:34;10.00;36.00
4308;DHT22;2167;53.448;9.984;2023-04-29T05:45:00;10.00;36.10
4308;DHT22;2167;53.448;9.984;2023-04-29T05:47:26;10.00;35.20
4308;DHT22;2167;53.448;9.984;2023-04-29T05:49:51;9.90;34.90
4308;DHT22;2167;53.448;9.984;2023-04-29T05:52:17;10.00;34.90
4308;DHT22;2167;53.448;9.984;2023-04-29T05:54:42;10.00;35.10
4308;DHT22;2167;53.448;9.984;2023-04-29T05:57:08;10.10;35.10
4308;DHT22;2167;53.448;9.984;2023-04-29T05:59:34;10.10;35.20
4308;DHT22;2167;53.448;9.984;2023-04-29T06:02:00;10.20;34.90
4308;DHT22;2167;53.448;9.984;2023-04-29T06:04:26;10.20;34.20
4308;DHT22;2167;53.448;9.984;2023-04-29T06:06:53;10.20;33.50
4308;DHT22;2167;53.448;9.984;2023-04-29T06:09:19;10.20;33.20
4308;DHT22;2167;53.448;9.984;2023-04-29T06:11:48;10.30;32.90
4308;DHT22;2167;53.448;9.984;2023-04-29T06:14:13;10.20;30.50
4308;DHT22;2167;53.448;9.984;2023-04-29T06:16:39;10.30;30.30
4308;DHT22;2167;53.448;9.984;2023-04-29T06:19:05;10.30;30.20
4308;DHT22;2167;53.448;9.984;2023-04-29T06:21:33;10.40;30.70
4308;DHT22;2167;53.448;9.984;2023-04-29T06:24:00;10.40;30.70
4308;DHT22;2167;53.448;9.984;2023-04-29T06:26:25;10.40;30.70
4308;DHT22;2167;53.448;9.984;2023-04-29T06:28:51;10.50;31.60
4308;DHT22;2167;53.448;9.984;2023-04-29T06:31:18;10.60;31.20
4308;DHT22;2167;53.448;9.984;2023-04-29T06:33:44;10.70;30.90
4308;DHT22;2167;53.448;9.984;2023-04-29T06:36:10;10.70;30.40
4308;DHT22;2167;53.448;9.984;2023-04-29T06:38:36;10.80;29.90
4308;DHT22;2167;53.448;9.984;2023-04-29T06:41:02;10.80;29.40
4308;DHT22;2167;53.448;9.984;2023-04-29T06:43:31;10.80;29.20
4308;DHT22;2167;53.448;9.984;2023-04-29T06:45:57;10.80;25.70
4308;DHT22;2167;53.448;9.984;2023-04-29T06:48:23;10.80;25.20
4308;DHT22;2167;53.448;9.984;2023-04-29T06:50:56;10.80;25.60
4308;DHT22;2167;53.448;9.984;2023-04-29T06:53:22;10.80;27.20
4308;DHT22;2167;53.448;9.984;2023-04-29T06:55:48;10.80;27.70
4308;DHT22;2167;53.448;9.984;2023-04-29T06:58:15;10.90;26.70
4308;DHT22;2167;53.448;9.984;2023-04-29T07:00:46;11.00;27.10
4308;DHT22;2167;53.448;9.984;2023-04-29T07:03:12;11.00;26.40
4308;DHT22;2167;53.448;9.984;2023-04-29T07:05:37;11.00;24.50
4308;DHT22;2167;53.448;9.984;2023-04-29T07:08:08;11.00;18.40
4308;DHT22;2167;53.448;9.984;2023-04-29T07:10:34;10.90;17.00
4308;DHT22;2167;53.448;9.984;2023-04-29T07:13:00;10.90;18.60
4308;DHT22;2167;53.448;9.984;2023-04-29T07:15:27;10.90;17.80
4308;DHT22;2167;53.448;9.984;2023-04-29T07:17:55;11.00;17.80
4308;DHT22;2167;53.448;9.984;2023-04-29T07:20:21;11.10;18.10
4308;DHT22;2167;53.448;9.984;2023-04-29T07:22:47;11.10;14.50
4308;DHT22;2167;53.448;9.984;2023-04-29T07:25:13;11.10;14.50
4308;DHT22;2167;53.448;9.984;2023-04-29T07:27:39;11.20;15.80
4308;DHT22;2167;53.448;9.984;2023-04-29T07:30:07;11.30;13.10
4308;DHT22;2167;53.448;9.984;2023-04-29T07:32:33;11.30;11.60
4308;DHT22;2167;53.448;9.984;2023-04-29T07:35:01;11.30;9.90
4308;DHT22;2167;53.448;9.984;2023-04-29T07:37:27;11.40;11.40
4308;DHT22;2167;53.448;9.984;2023-04-29T07:39:53;11.50;12.00
4308;DHT22;2167;53.448;9.984;2023-04-29T07:42:18;11.50;11.00
4308;DHT22;2167;53.448;9.984;2023-04-29T07:44:44;11.60;9.70
4308;DHT22;2167;53.448;9.984;2023-04-29T07:47:10;11.60;4.30
4308;DHT22;2167;53.448;9.984;2023-04-29T07:49:36;11.60;3.10
4308;DHT22;2167;53.448;9.984;2023-04-29T07:52:04;11.70;6.40
4308;DHT22;2167;53.448;9.984;2023-04-29T07:54:29;11.80;4.80
4308;DHT22;2167;53.448;9.984;2023-04-29T07:56:57;11.90;5.20
4308;DHT22;2167;53.448;9.984;2023-04-29T07:59:23;12.00;4.80
4308;DHT22;2167;53.448;9.984;2023-04-29T08:01:51;12.00;3.10
4308;DHT22;2167;53.448;9.984;2023-04-29T08:04:18;12.10;1.00
4308;DHT22;2167;53.448;9.984;2023-04-29T08:06:43;12.10;2.50
4308;DHT22;2167;53.448;9.984;2023-04-29T08:09:09;12.30;3.80
4308;DHT22;2167;53.448;9.984;2023-04-29T08:11:35;12.40;2.70
4308;DHT22;2167;53.448;9.984;2023-04-29T08:14:01;12.50;1.00
4308;DHT22;2167;53.448;9.984;2023-04-29T08:16:26;12.70;1.90
4308;DHT22;2167;53.448;9.984;2023-04-29T08:18:52;12.80;1.20
4308;DHT22;2167;53.448;9.984;2023-04-29T08:21:19;13.00;1.00
4308;DHT22;2167;53.448;9.984;2023-04-29T08:23:44;13.20;1.00
4308;DHT22;2167;53.448;9.984;2023-04-29T08:26:10;13.40;1.00
4308;DHT22;2167;53.448;9.984;2023-04-29T08:28:37;13.50;1.00
4308;DHT22;2167;53.448;9.984;2023-04-29T08:31:03;13.50;1.00
4308;DHT22;2167;53.448;9.984;2023-04-29T08:33:35;13.70;1.00
4308;DHT22;2167;53.448;9.984;2023-04-29T08:36:02;14.00;1.00
4308;DHT22;2167;53.448;9.984;2023-04-29T08:38:28;14.10;1.00
4308;DHT22;2167;53.448;9.984;2023-04-29T08:40:54;14.10;1.00
4308;DHT22;2167;53.448;9.984;2023-04-29T08:43:21;14.20;1.00
4308;DHT22;2167;53.448;9.984;2023-04-29T08:45:48;14.40;1.00
4308;DHT22;2167;53.448;9.984;2023-04-29T08:48:15;14.60;1.00
4308;DHT22;2167;53.448;9.984;2023-04-29T08:50:41;14.80;1.00
4308;DHT22;2167;53.448;9.984;2023-04-29T08:53:08;15.10;1.00
4308;DHT22;2167;53.448;9.984;2023-04-29T08:55:45;15.40;1.00
4308;DHT22;2167;53.448;9.984;2023-04-29T08:58:13;15.40;1.00
4308;DHT22;2167;53.448;9.984;2023-04-29T09:00:39;15.50;1.00
4308;DHT22;2167;53.448;9.984;2023-04-29T09:03:19;15.60;1.00
4308;DHT22;2167;53.448;9.984;2023-04-29T09:05:48;15.60;1.00
4308;DHT22;2167;53.448;9.984;2023-04-29T09:08:16;15.80;1.00
4308;DHT22;2167;53.448;9.984;2023-04-29T09:10:42;15.70;1.00
4308;DHT22;2167;53.448;9.984;2023-04-29T09:13:08;15.70;1.00
4308;DHT22;2167;53.448;9.984;2023-04-29T09:15:37;15.80;1.00
4308;DHT22;2167;53.448;9.984;2023-04-29T09:18:04;15.80;1.00
4308;DHT22;2167;53.448;9.984;2023-04-29T09:20:30;15.80;1.00
4308;DHT22;2167;53.448;9.984;2023-04-29T09:23:01;16.00;1.00
4308;DHT22;2167;53.448;9.984;2023-04-29T09:25:28;16.00;1.00
4308;DHT22;2167;53.448;9.984;2023-04-29T09:27:54;16.00;1.00
4308;DHT22;2167;53.448;9.984;2023-04-29T09:30:21;16.00;1.00
4308;DHT22;2167;53.448;9.984;2023-04-29T09:33:04;15.80;1.00
4308;DHT22;2167;53.448;9.984;2023-04-29T09:35:30;15.70;1.00
4308;DHT22;2167;53.448;9.984;2023-04-29T09:38:13;15.40;1.00
4308;DHT22;2167;53.448;9.984;2023-04-29T09:40:43;15.30;1.00
4308;DHT22;2167;53.448;9.984;2023-04-29T09:43:14;15.40;1.00
4308;DHT22;2167;53.448;9.984;2023-04-29T09:45:42;15.50;1.00
4308;DHT22;2167;53.448;9.984;2023-04-29T09:48:09;15.60;1.00
4308;DHT22;2167;53.448;9.984;2023-04-29T09:50:36;15.70;1.00
4308;DHT22;2167;53.448;9.984;2023-04-29T09:53:03;15.70;1.00
4308;DHT22;2167;53.448;9.984;2023-04-29T09:55:30;15.90;1.00
4308;DHT22;2167;53.448;9.984;2023-04-29T09:57:56;16.00;1.00
4308;DHT22;2167;53.448;9.984;2023-04-29T10:00:23;15.90;1.00
4308;DHT22;2167;53.448;9.984;2023-04-29T10:02:50;15.80;1.00
4308;DHT22;2167;53.448;9.984;2023-04-29T10:05:18;15.60;1.00
4308;DHT22;2167;53.448;9.984;2023-04-29T10:07:46;15.60;1.00
4308;DHT22;2167;53.448;9.984;2023-04-29T10:10:14;15.80;1.00
4308;DHT22;2167;53.448;9.984;2023-04-29T10:12:42;15.70;1.00
4308;DHT22;2167;53.448;9.984;2023-04-29T10:18:13;16.20;1.00
4308;DHT22;2167;53.448;9.984;2023-04-29T10:20:46;16.20;1.00
4308;DHT22;2167;53.448;9.984;2023-04-29T10:23:13;16.40;1.00
4308;DHT22;2167;53.448;9.984;2023-04-29T10:25:40;16.60;1.00
4308;DHT22;2167;53.448;9.984;2023-04-29T10:28:10;16.90;1.00
4308;DHT22;2167;53.448;9.984;2023-04-29T10:30:40;17.10;1.00
4308;DHT22;2167;53.448;9.984;2023-04-29T10:33:09;17.10;1.00
4308;DHT22;2167;53.448;9.984;2023-04-29T10:35:35;16.90;1.00
4308;DHT22;2167;53.448;9.984;2023-04-29T10:38:14;16.70;1.00
4308;DHT22;2167;53.448;9.984;2023-04-29T10:40:44;16.80;1.00
4308;DHT22;2167;53.448;9.984;2023-04-29T10:43:12;17.00;1.00
4308;DHT22;2167;53.448;9.984;2023-04-29T10:45:38;17.10;1.00
4308;DHT22;2167;53.448;9.984;2023-04-29T10:53:12;17.70;1.00
4308;DHT22;2167;53.448;9.984;2023-04-29T10:55:39;17.60;1.00
4308;DHT22;2167;53.448;9.984;2023-04-29T10:58:05;17.40;1.00
4308;DHT22;2167;53.448;9.984;2023-04-29T11:00:52;17.30;1.00
4308;DHT22;2167;53.448;9.984;2023-04-29T11:06:13;17.00;1.00
4308;DHT22;2167;53.448;9.984;2023-04-29T11:08:39;17.00;1.00
4308;DHT22;2167;53.448;9.984;2023-04-29T11:11:08;17.00;1.00
4308;DHT22;2167;53.448;9.984;2023-04-29T11:13:38;17.10;1.00
4308;DHT22;2167;53.448;9.984;2023-04-29T11:16:10;17.40;1.00
4308;DHT22;2167;53.448;9.984;2023-04-29T11:19:03;17.60;1.00
4308;DHT22;2167;53.448;9.984;2023-04-29T11:21:29;17.80;1.00
4308;DHT22;2167;53.448;9.984;2023-04-29T11:23:57;18.00;1.00
4308;DHT22;2167;53.448;9.984;2023-04-29T11:26:23;18.10;1.00
4308;DHT22;2167;53.448;9.984;2023-04-29T11:28:50;18.10;1.00
4308;DHT22;2167;53.448;9.984;2023-04-29T11:31:16;18.00;1.00
4308;DHT22;2167;53.448;9.984;2023-04-29T11:33:42;17.90;1.00
4308;DHT22;2167;53.448;9.984;2023-04-29T11:36:11;18.00;1.00
4308;DHT22;2167;53.448;9.984;2023-04-29T11:38:39;18.20;1.00
4308;DHT22;2167;53.448;9.984;2023-04-29T11:41:05;18.30;1.00
4308;DHT22;2167;53.448;9.984;2023-04-29T11:43:31;18.30;1.00
4308;DHT22;2167;53.448;9.984;2023-04-29T11:45:57;18.20;1.00
4308;DHT22;2167;53.448;9.984;2023-04-29T11:48:24;18.00;1.00
4308;DHT22;2167;53.448;9.984;2023-04-29T11:50:52;17.50;1.00
4308;DHT22;2167;53.448;9.984;2023-04-29T11:53:20;17.40;1.00
4308;DHT22;2167;53.448;9.984;2023-04-29T11:55:47;17.40;1.00
4308;DHT22;2167;53.448;9.984;2023-04-29T11:58:16;17.50;1.00
4308;DHT22;2167;53.448;9.984;2023-04-29T12:00:42;17.40;1.00
4308;DHT22;2167;53.448;9.984;2023-04-29T12:03:13;17.30;1.00
4308;DHT22;2167;53.448;9.984;2023-04-29T12:05:45;17.20;1.00
4308;DHT22;2167;53.448;9.984;2023-04-29T12:08:10;17.20;1.00
4308;DHT22;2167;53.448;9.984;2023-04-29T12:10:36;17.20;1.00
4308;DHT22;2167;53.448;9.984;2023-04-29T12:13:02;17.40;1.00
4308;DHT22;2167;53.448;9.984;2023-04-29T12:15:29;17.40;1.00
4308;DHT22;2167;53.448;9.984;2023-04-29T12:17:55;17.30;1.00
4308;DHT22;2167;53.448;9.984;2023-04-29T12:20:21;17.20;1.00
4308;DHT22;2167;53.448;9.984;2023-04-29T12:22:47;17.30;1.00
4308;DHT22;2167;53.448;9.984;2023-04-29T12:25:14;17.30;1.00
4308;DHT22;2167;53.448;9.984;2023-04-29T12:27:41;17.60;1.00
4308;DHT22;2167;53.448;9.984;2023-04-29T12:30:07;17.70;1.00
4308;DHT22;2167;53.448;9.984;2023-04-29T12:32:34;17.80;1.00
4308;DHT22;2167;53.448;9.984;2023-04-29T12:35:01;18.20;1.00
4308;DHT22;2167;53.448;9.984;2023-04-29T12:37:26;18.50;1.00
4308;DHT22;2167;53.448;9.984;2023-04-29T12:39:56;18.70;1.00
4308;DHT22;2167;53.448;9.984;2023-04-29T12:42:21;18.70;1.00
4308;DHT22;2167;53.448;9.984;2023-04-29T12:44:47;18.80;1.00
4308;DHT22;2167;53.448;9.984;2023-04-29T12:47:14;18.90;1.00
4308;DHT22;2167;53.448;9.984;2023-04-29T12:49:41;18.90;1.00
4308;DHT22;2167;53.448;9.984;2023-04-29T12:52:08;18.60;1.00
4308;DHT22;2167;53.448;9.984;2023-04-29T12:54:37;18.40;1.00
4308;DHT22;2167;53.448;9.984;2023-04-29T12:57:05;18.40;1.00
4308;DHT22;2167;53.448;9.984;2023-04-29T12:59:31;18.40;1.00
4308;DHT22;2167;53.448;9.984;2023-04-29T13:01:56;18.40;1.00
4308;DHT22;2167;53.448;9.984;2023-04-29T13:04:22;18.50;1.00
4308;DHT22;2167;53.448;9.984;2023-04-29T13:06:48;18.50;1.00
4308;DHT22;2167;53.448;9.984;2023-04-29T13:09:13;18.50;1.00
4308;DHT22;2167;53.448;9.984;2023-04-29T13:11:39;18.30;1.00
4308;DHT22;2167;53.448;9.984;2023-04-29T13:14:06;18.20;1.00
4308;DHT22;2167;53.448;9.984;2023-04-29T13:16:34;18.20;1.00
4308;DHT22;2167;53.448;9.984;2023-04-29T13:19:00;18.20;1.00
4308;DHT22;2167;53.448;9.984;2023-04-29T13:21:26;18.10;1.00
4308;DHT22;2167;53.448;9.984;2023-04-29T13:23:53;18.10;1.00
4308;DHT22;2167;53.448;9.984;2023-04-29T13:26:19;18.00;1.00
4308;DHT22;2167;53.448;9.984;2023-04-29T13:28:45;18.10;1.00
4308;DHT22;2167;53.448;9.984;2023-04-29T13:31:11;18.20;1.00
4308;DHT22;2167;53.448;9.984;2023-04-29T13:33:36;18.20;1.00
4308;DHT22;2167;53.448;9.984;2023-04-29T13:36:02;17.80;1.00
4308;DHT22;2167;53.448;9.984;2023-04-29T13:38:27;17.70;1.00
4308;DHT22;2167;53.448;9.984;2023-04-29T13:40:53;17.80;1.00
4308;DHT22;2167;53.448;9.984;2023-04-29T13:43:20;17.80;1.00
4308;DHT22;2167;53.448;9.984;2023-04-29T13:45:46;18.10;1.00
4308;DHT22;2167;53.448;9.984;2023-04-29T13:48:11;18.40;1.00
4308;DHT22;2167;53.448;9.984;2023-04-29T13:50:37;18.60;1.00
4308;DHT22;2167;53.448;9.984;2023-04-29T13:53:05;18.80;1.00
4308;DHT22;2167;53.448;9.984;2023-04-29T13:55:32;18.90;1.00
4308;DHT22;2167;53.448;9.984;2023-04-29T13:57:59;19.10;1.00
4308;DHT22;2167;53.448;9.984;2023-04-29T14:00:25;19.10;1.00
4308;DHT22;2167;53.448;9.984;2023-04-29T14:02:51;19.20;1.00
4308;DHT22;2167;53.448;9.984;2023-04-29T14:05:17;19.30;1.00
4308;DHT22;2167;53.448;9.984;2023-04-29T14:07:42;19.20;1.00
4308;DHT22;2167;53.448;9.984;2023-04-29T14:10:08;18.90;1.00
4308;DHT22;2167;53.448;9.984;2023-04-29T14:12:37;18.60;1.00
4308;DHT22;2167;53.448;9.984;2023-04-29T14:15:02;18.10;1.00
4308;DHT22;2167;53.448;9.984;2023-04-29T14:17:31;18.10;1.00
4308;DHT22;2167;53.448;9.984;2023-04-29T14:19:57;18.10;1.00
4308;DHT22;2167;53.448;9.984;2023-04-29T14:22:22;18.10;1.00
4308;DHT22;2167;53.448;9.984;2023-04-29T14:24:48;18.20;1.00
4308;DHT22;2167;53.448;9.984;2023-04-29T14:27:14;18.30;1.00
4308;DHT22;2167;53.448;9.984;2023-04-29T14:29:40;18.20;1.00
4308;DHT22;2167;53.448;9.984;2023-04-29T14:32:06;18.20;1.00
4308;DHT22;2167;53.448;9.984;2023-04-29T14:34:32;18.00;1.00
4308;DHT22;2167;53.448;9.984;2023-04-29T14:36:57;17.80;1.00
4308;DHT22;2167;53.448;9.984;2023-04-29T14:39:23;17.80;1.00
4308;DHT22;2167;53.448;9.984;2023-04-29T14:41:50;17.80;1.00
4308;DHT22;2167;53.448;9.984;2023-04-29T14:44:15;17.70;1.00
4308;DHT22;2167;53.448;9.984;2023-04-29T14:46:41;17.60;1.00
4308;DHT22;2167;53.448;9.984;2023-04-29T14:49:07;17.50;1.00
4308;DHT22;2167;53.448;9.984;2023-04-29T14:51:32;17.50;1.00
4308;DHT22;2167;53.448;9.984;2023-04-29T14:53:58;17.50;1.00
4308;DHT22;2167;53.448;9.984;2023-04-29T14:56:24;17.70;1.00
4308;DHT22;2167;53.448;9.984;2023-04-29T14:58:50;17.80;1.00
4308;DHT22;2167;53.448;9.984;2023-04-29T15:01:15;18.00;1.00
4308;DHT22;2167;53.448;9.984;2023-04-29T15:03:41;17.90;1.00
4308;DHT22;2167;53.448;9.984;2023-04-29T15:06:07;17.80;1.00
4308;DHT22;2167;53.448;9.984;2023-04-29T15:08:32;17.70;1.00
4308;DHT22;2167;53.448;9.984;2023-04-29T15:10:58;17.70;1.00
4308;DHT22;2167;53.448;9.984;2023-04-29T15:13:24;17.80;1.00
4308;DHT22;2167;53.448;9.984;2023-04-29T15:15:52;17.60;1.00
4308;DHT22;2167;53.448;9.984;2023-04-29T15:18:18;17.60;1.00
4308;DHT22;2167;53.448;9.984;2023-04-29T15:20:44;17.60;1.00
4308;DHT22;2167;53.448;9.984;2023-04-29T15:23:10;17.50;1.00
4308;DHT22;2167;53.448;9.984;2023-04-29T15:25:36;17.40;1.00
4308;DHT22;2167;53.448;9.984;2023-04-29T15:28:02;17.20;1.00
4308;DHT22;2167;53.448;9.984;2023-04-29T15:30:30;16.90;1.00
4308;DHT22;2167;53.448;9.984;2023-04-29T15:32:55;16.50;1.00
4308;DHT22;2167;53.448;9.984;2023-04-29T15:35:21;16.40;1.00
4308;DHT22;2167;53.448;9.984;2023-04-29T15:37:47;16.40;1.00
4308;DHT22;2167;53.448;9.984;2023-04-29T15:40:12;16.30;1.00
4308;DHT22;2167;53.448;9.984;2023-04-29T15:42:38;16.50;1.00
4308;DHT22;2167;53.448;9.984;2023-04-29T15:45:04;16.50;1.00
4308;DHT22;2167;53.448;9.984;2023-04-29T15:47:33;16.40;1.00
4308;DHT22;2167;53.448;9.984;2023-04-29T15:49:58;16.00;1.00
4308;DHT22;2167;53.448;9.984;2023-04-29T15:52:24;15.90;1.00
4308;DHT22;2167;53.448;9.984;2023-04-29T15:54:49;15.80;1.00
4308;DHT22;2167;53.448;9.984;2023-04-29T15:57:18;15.60;1.00
4308;DHT22;2167;53.448;9.984;2023-04-29T15:59:47;15.30;1.00
4308;DHT22;2167;53.448;9.984;2023-04-29T16:02:12;15.20;1.00
4308;DHT22;2167;53.448;9.984;2023-04-29T16:04:42;15.20;1.00
4308;DHT22;2167;53.448;9.984;2023-04-29T16:07:08;15.00;1.00
4308;DHT22;2167;53.448;9.984;2023-04-29T16:09:34;15.00;1.00
4308;DHT22;2167;53.448;9.984;2023-04-29T16:12:00;15.00;1.00
4308;DHT22;2167;53.448;9.984;2023-04-29T16:14:26;14.80;1.00
4308;DHT22;2167;53.448;9.984;2023-04-29T16:16:52;14.70;1.00
4308;DHT22;2167;53.448;9.984;2023-04-29T16:19:20;14.60;1.00
4308;DHT22;2167;53.448;9.984;2023-04-29T16:21:46;14.70;1.00
4308;DHT22;2167;53.448;9.984;2023-04-29T16:24:13;14.50;1.00
4308;DHT22;2167;53.448;9.984;2023-04-29T16:26:39;14.40;1.00
4308;DHT22;2167;53.448;9.984;2023-04-29T16:29:06;14.30;1.00
4308;DHT22;2167;53.448;9.984;2023-04-29T16:31:31;14.40;1.00
4308;DHT22;2167;53.448;9.984;2023-04-29T16:33:57;14.40;1.00
4308;DHT22;2167;53.448;9.984;2023-04-29T16:36:23;14.40;1.00
4308;DHT22;2167;53.448;9.984;2023-04-29T16:38:52;14.30;1.00
4308;DHT22;2167;53.448;9.984;2023-04-29T16:41:20;14.20;1.00